Time;durP1;ratioP1;P1;durP2;ratioP2;P2;SDS_P1;SDS_P2;PMS_P1;PMS_P2;Temp;Humidity;BMP_temperature;BMP_pressure;BME280_temperature;BME280_humidity;BME280_pressure;Samples;Min_cycle;Max_cycle;Signal;HPM_P1;HPM_P2
2021/07/21 00:00:41;;;;;;;176.37;138.40;;;;;;;;;;4291904;33;20133;-84
2021/07/21 00:03:10;;;;;;;161.00;133.27;;;;;;;;;;4276556;33;20420;-84
2021/07/21 00:05:39;;;;;;;137.68;122.35;;;;;;;;;;4277912;33;20087;-85
2021/07/21 00:08:08;;;;;;;143.82;119.37;;;;;;;;;;4281149;33;20135;-86
2021/07/21 00:10:37;;;;;;;142.93;116.93;;;;;;;;;;4279905;33;20037;-86
2021/07/21 00:16:00;;;;;;;198.05;135.70;;;;;;;;;;4280487;33;20468;-85
2021/07/21 00:20:58;;;;;;;194.93;130.65;;;;;;;;;;4278347;33;20194;-86
2021/07/21 00:23:27;;;;;;;239.25;153.43;;;;;;;;;;4288972;33;20065;-86
2021/07/21 00:25:56;;;;;;;237.43;152.27;;;;;;;;;;4279505;33;20744;-86
2021/07/21 00:28:26;;;;;;;230.00;153.00;;;;;;;;;;4278902;33;20111;-85
2021/07/21 00:30:55;;;;;;;230.73;155.98;;;;;;;;;;4279309;33;20071;-85
2021/07/21 00:33:23;;;;;;;172.65;142.32;;;;;;;;;;4280549;33;20153;-85
2021/07/21 00:35:52;;;;;;;181.43;146.80;;;;;;;;;;4280303;33;20415;-85
2021/07/21 00:38:21;;;;;;;166.75;138.60;;;;;;;;;;4279129;33;20045;-85
2021/07/21 00:40:51;;;;;;;162.05;139.75;;;;;;;;;;4280121;33;20049;-86
2021/07/21 00:43:19;;;;;;;167.57;141.32;;;;;;;;;;4283659;33;20075;-85
2021/07/21 00:45:48;;;;;;;243.77;155.27;;;;;;;;;;4284495;33;20207;-86
2021/07/21 00:48:17;;;;;;;194.05;130.82;;;;;;;;;;4286501;33;20136;-85
2021/07/21 00:50:48;;;;;;;195.25;131.95;;;;;;;;;;4277425;33;20061;-85
2021/07/21 00:53:17;;;;;;;184.50;129.45;;;;;;;;;;4279729;33;20045;-85
2021/07/21 00:55:47;;;;;;;188.65;131.02;;;;;;;;;;4277225;33;20207;-84
2021/07/21 00:58:17;;;;;;;192.45;134.90;;;;;;;;;;4278691;33;20072;-85
2021/07/21 01:00:47;;;;;;;188.82;131.07;;;;;;;;;;4278092;33;20104;-86
2021/07/21 01:03:15;;;;;;;189.43;132.95;;;;;;;;;;4288173;33;20120;-85
2021/07/21 01:05:44;;;;;;;190.35;128.25;;;;;;;;;;4279327;33;20072;-85
2021/07/21 01:08:14;;;;;;;194.90;133.30;;;;;;;;;;4288319;33;20100;-84
2021/07/21 01:10:53;;;;;;;202.43;140.18;;;;;;;;;;4292975;33;20115;-85
2021/07/21 01:13:26;;;;;;;199.65;135.90;;;;;;;;;;4279539;33;20084;-86
2021/07/21 01:15:58;;;;;;;196.32;139.23;;;;;;;;;;4288001;33;20062;-85
2021/07/21 01:18:36;;;;;;;182.98;140.25;;;;;;;;;;4290211;33;20103;-85
2021/07/21 01:21:25;;;;;;;177.20;139.93;;;;;;;;;;4279191;33;20045;-86
2021/07/21 01:24:04;;;;;;;240.50;153.27;;;;;;;;;;4279940;33;20080;-85
2021/07/21 01:26:42;;;;;;;188.20;128.07;;;;;;;;;;4286958;33;20042;-85
2021/07/21 01:29:12;;;;;;;229.15;149.75;;;;;;;;;;4281495;33;20085;-85
2021/07/21 01:31:43;;;;;;;230.07;150.80;;;;;;;;;;4275045;33;20111;-85
2021/07/21 01:34:13;;;;;;;230.93;163.68;;;;;;;;;;4290254;33;20045;-85
2021/07/21 01:36:44;;;;;;;231.98;156.93;;;;;;;;;;4285417;33;20061;-84
2021/07/21 01:39:15;;;;;;;193.65;135.20;;;;;;;;;;4269949;33;20581;-86
2021/07/21 01:41:48;;;;;;;194.20;134.37;;;;;;;;;;4288830;33;20069;-86
2021/07/21 01:44:20;;;;;;;190.93;131.50;;;;;;;;;;4289968;33;20045;-86
2021/07/21 01:47:00;;;;;;;210.82;149.77;;;;;;;;;;4283999;33;20185;-86
2021/07/21 01:49:34;;;;;;;177.02;144.82;;;;;;;;;;4292460;33;20563;-85
2021/07/21 01:52:05;;;;;;;174.20;143.90;;;;;;;;;;4285285;33;20168;-85
2021/07/21 01:54:34;;;;;;;194.50;142.10;;;;;;;;;;4291013;33;20092;-85
2021/07/21 01:57:03;;;;;;;199.23;142.40;;;;;;;;;;4282802;33;20046;-85
2021/07/21 01:59:33;;;;;;;192.48;139.77;;;;;;;;;;4279981;33;20068;-85
2021/07/21 02:02:03;;;;;;;181.82;131.02;;;;;;;;;;4282694;33;20660;-85
2021/07/21 02:04:36;;;;;;;188.90;130.90;;;;;;;;;;4285003;33;20100;-85
2021/07/21 02:07:09;;;;;;;196.50;136.48;;;;;;;;;;4283542;33;20064;-84
2021/07/21 02:09:42;;;;;;;196.30;136.87;;;;;;;;;;4279920;33;20131;-85
2021/07/21 02:12:12;;;;;;;199.98;136.80;;;;;;;;;;4285526;33;20192;-85
2021/07/21 02:14:43;;;;;;;199.68;139.18;;;;;;;;;;4284530;33;20401;-84
2021/07/21 02:17:13;;;;;;;236.70;162.88;;;;;;;;;;4288525;33;20757;-85
2021/07/21 02:19:43;;;;;;;237.27;158.85;;;;;;;;;;4280746;33;20459;-84
2021/07/21 02:22:16;;;;;;;230.90;157.43;;;;;;;;;;4285733;33;20070;-85
2021/07/21 02:24:50;;;;;;;178.27;147.70;;;;;;;;;;4281739;33;20095;-85
2021/07/21 02:27:21;;;;;;;176.73;147.20;;;;;;;;;;4290849;33;20046;-85
2021/07/21 02:29:51;;;;;;;183.55;157.68;;;;;;;;;;4286445;33;20053;-83
2021/07/21 02:32:25;;;;;;;178.95;145.10;;;;;;;;;;4286773;33;20108;-85
2021/07/21 02:34:54;;;;;;;180.43;147.80;;;;;;;;;;4283391;33;20037;-86
2021/07/21 02:37:23;;;;;;;235.23;160.73;;;;;;;;;;4287481;33;20148;-85
2021/07/21 02:39:53;;;;;;;239.07;163.02;;;;;;;;;;4285738;33;20486;-86
2021/07/21 02:42:22;;;;;;;201.70;140.32;;;;;;;;;;4286779;33;20073;-85
2021/07/21 02:44:52;;;;;;;193.68;135.90;;;;;;;;;;4282131;33;20864;-85
2021/07/21 02:47:28;;;;;;;193.68;134.30;;;;;;;;;;4281826;33;20135;-86
2021/07/21 02:49:57;;;;;;;194.93;133.75;;;;;;;;;;4288352;33;20526;-85
2021/07/21 02:52:29;;;;;;;190.32;132.40;;;;;;;;;;4286799;33;20105;-86
2021/07/21 02:55:28;;;;;;;185.37;129.68;;;;;;;;;;4285102;33;20072;-85
2021/07/21 02:58:18;;;;;;;191.12;134.73;;;;;;;;;;4260726;33;20378;-85
2021/07/21 03:00:49;;;;;;;200.70;140.98;;;;;;;;;;4286218;33;20079;-85
2021/07/21 03:03:20;;;;;;;189.18;145.38;;;;;;;;;;4282166;33;20104;-85
2021/07/21 03:05:49;;;;;;;183.27;146.93;;;;;;;;;;4289102;33;20689;-85
2021/07/21 03:08:19;;;;;;;178.60;140.52;;;;;;;;;;4289593;33;20149;-86
2021/07/21 03:10:55;;;;;;;181.80;146.00;;;;;;;;;;4309273;28;20095;-96
2021/07/21 03:13:39;;;;;;;185.15;164.73;;;;;;;;;;4282176;33;20787;-96
2021/07/21 03:16:12;;;;;;;225.43;151.53;;;;;;;;;;4287605;33;20157;-94
2021/07/21 03:18:47;;;;;;;221.32;151.93;;;;;;;;;;4285205;33;20084;-95
2021/07/21 03:21:20;;;;;;;192.25;134.82;;;;;;;;;;4274722;33;20120;-94
2021/07/21 03:23:50;;;;;;;186.23;133.48;;;;;;;;;;4291002;33;20081;-94
2021/07/21 03:26:22;;;;;;;197.65;137.57;;;;;;;;;;4275751;33;20064;-95
2021/07/21 03:28:53;;;;;;;201.88;140.50;;;;;;;;;;4273982;33;20049;-96
2021/07/21 03:31:26;;;;;;;195.65;134.60;;;;;;;;;;4291074;33;20132;-96
2021/07/21 03:34:06;;;;;;;196.23;133.32;;;;;;;;;;4276759;33;20085;-94
2021/07/21 03:36:40;;;;;;;191.55;133.48;;;;;;;;;;4288355;33;20037;-95
2021/07/21 03:39:10;;;;;;;204.05;141.93;;;;;;;;;;4280945;33;20203;-95
2021/07/21 03:41:44;;;;;;;208.87;148.35;;;;;;;;;;4277947;33;20049;-96
2021/07/21 03:44:19;;;;;;;189.13;151.18;;;;;;;;;;4288907;33;20145;-96
2021/07/21 03:46:52;;;;;;;;;;;;;;;;;;4273714;33;20111;-96
2021/07/21 03:49:21;;;;;;;214.23;151.05;;;;;;;;;;4275991;33;19980;-96
2021/07/21 03:51:56;;;;;;;244.73;166.85;;;;;;;;;;4277094;33;20088;-96
2021/07/21 03:54:30;;;;;;;248.35;168.50;;;;;;;;;;4275935;33;20104;-96
2021/07/21 03:57:06;;;;;;;249.65;170.18;;;;;;;;;;4274495;33;20104;-95
2021/07/21 03:59:37;;;;;;;202.87;139.52;;;;;;;;;;4272008;33;20640;-96
2021/07/21 04:02:16;;;;;;;200.70;141.70;;;;;;;;;;4275379;33;20048;-96
2021/07/21 04:04:48;;;;;;;193.93;136.77;;;;;;;;;;4288986;33;20037;-95
2021/07/21 04:07:19;;;;;;;191.55;138.82;;;;;;;;;;4278116;33;20053;-95
2021/07/21 04:09:54;;;;;;;188.60;134.98;;;;;;;;;;4277070;33;20065;-96
2021/07/21 04:12:24;;;;;;;198.57;143.52;;;;;;;;;;4263735;33;20615;-96
2021/07/21 04:14:53;;;;;;;236.93;154.55;;;;;;;;;;4280340;33;20555;-95
2021/07/21 04:17:27;;;;;;;192.00;167.30;;;;;;;;;;4272903;33;20125;-96
2021/07/21 04:19:57;;;;;;;197.98;173.75;;;;;;;;;;4274286;33;20089;-96
2021/07/21 04:22:36;;;;;;;202.93;176.95;;;;;;;;;;4288191;33;20464;-95
2021/07/21 04:25:07;;;;;;;197.80;143.60;;;;;;;;;;4268127;33;20500;-96
2021/07/21 04:27:39;;;;;;;205.80;180.52;;;;;;;;;;4280442;33;20053;-95
2021/07/21 04:30:13;;;;;;;248.98;166.57;;;;;;;;;;4264239;33;20538;-96
2021/07/21 04:32:42;;;;;;;243.60;164.55;;;;;;;;;;4273332;33;20111;-96
2021/07/21 04:35:20;;;;;;;248.40;170.57;;;;;;;;;;4275093;33;20483;-95
2021/07/21 04:37:51;;;;;;;257.05;172.90;;;;;;;;;;4270298;33;20049;-95
2021/07/21 04:40:23;;;;;;;252.27;171.27;;;;;;;;;;4280310;33;20046;-96
2021/07/21 04:42:55;;;;;;;246.52;167.68;;;;;;;;;;4268031;33;20376;-96
2021/07/21 04:45:30;;;;;;;245.68;167.82;;;;;;;;;;4278441;33;20099;-96
2021/07/21 04:48:02;;;;;;;200.32;141.35;;;;;;;;;;4270139;33;20644;-95
2021/07/21 04:50:37;;;;;;;203.40;140.55;;;;;;;;;;4272500;33;20041;-94
2021/07/21 04:53:11;;;;;;;208.38;144.87;;;;;;;;;;4288637;33;20199;-94
2021/07/21 04:55:47;;;;;;;213.70;145.75;;;;;;;;;;4277071;33;20058;-95
2021/07/21 04:58:21;;;;;;;206.40;143.85;;;;;;;;;;4286176;33;20060;-95
2021/07/21 05:01:00;;;;;;;213.27;146.13;;;;;;;;;;4275301;33;20037;-96
2021/07/21 05:03:33;;;;;;;212.52;147.85;;;;;;;;;;4270735;33;20045;-95
2021/07/21 05:06:09;;;;;;;213.07;146.68;;;;;;;;;;4271757;33;20112;-95
2021/07/21 05:08:45;;;;;;;222.68;161.55;;;;;;;;;;4273289;33;20042;-96
2021/07/21 05:11:18;;;;;;;205.20;152.05;;;;;;;;;;4273095;33;20430;-95
2021/07/21 05:13:57;;;;;;;239.10;167.45;;;;;;;;;;4276244;33;20036;-96
2021/07/21 05:17:01;;;;;;;207.00;148.80;;;;;;;;;;4279254;33;20081;-95
2021/07/21 05:19:37;;;;;;;204.87;143.48;;;;;;;;;;4264892;33;20091;-96
2021/07/21 05:22:35;;;;;;;207.23;145.07;;;;;;;;;;4278334;33;20075;-96
2021/07/21 05:25:21;;;;;;;252.15;174.95;;;;;;;;;;4276257;33;20049;-96
2021/07/21 05:27:56;;;;;;;249.27;173.07;;;;;;;;;;4275956;33;20089;-94
2021/07/21 05:30:33;;;;;;;259.45;176.10;;;;;;;;;;4271055;33;20149;-96
2021/07/21 05:33:12;;;;;;;199.93;156.63;;;;;;;;;;4291327;33;20045;-94
2021/07/21 05:35:47;;;;;;;221.23;153.05;;;;;;;;;;4282075;33;20045;-96
2021/07/21 05:38:32;;;;;;;187.70;155.27;;;;;;;;;;4276939;33;20083;-96
2021/07/21 05:41:11;;;;;;;185.07;150.07;;;;;;;;;;4277437;33;20390;-95
2021/07/21 05:43:40;;;;;;;203.35;152.70;;;;;;;;;;4277826;33;20065;-96
2021/07/21 05:46:13;;;;;;;196.87;135.65;;;;;;;;;;4277678;33;20143;-96
2021/07/21 05:48:50;;;;;;;199.07;137.55;;;;;;;;;;4277955;33;20072;-95
2021/07/21 05:51:26;;;;;;;200.65;136.35;;;;;;;;;;4271796;33;20094;-96
2021/07/21 05:54:07;;;;;;;203.55;135.75;;;;;;;;;;4285198;33;20045;-96
2021/07/21 05:56:36;;;;;;;200.27;135.00;;;;;;;;;;4273135;33;20323;-96
2021/07/21 05:59:11;;;;;;;;;;;;;;;;;;4287001;33;20076;-96
2021/07/21 06:01:45;;;;;;;188.57;130.10;;;;;;;;;;4273740;33;19944;-95
2021/07/21 06:04:19;;;;;;;192.35;139.43;;;;;;;;;;4289471;33;20105;-96
2021/07/21 06:06:51;;;;;;;195.20;136.95;;;;;;;;;;4282160;33;20115;-96
2021/07/21 06:09:28;;;;;;;186.02;146.48;;;;;;;;;;4281482;33;20080;-94
2021/07/21 06:11:57;;;;;;;184.18;146.73;;;;;;;;;;4283418;33;20488;-94
2021/07/21 06:14:32;;;;;;;194.05;152.27;;;;;;;;;;4274438;33;20037;-95
2021/07/21 06:17:07;;;;;;;184.48;146.32;;;;;;;;;;4286336;33;20086;-93
2021/07/21 06:19:40;;;;;;;183.90;145.73;;;;;;;;;;4287229;33;20442;-94
2021/07/21 06:22:18;;;;;;;241.68;155.07;;;;;;;;;;4285725;33;20136;-96
2021/07/21 06:24:52;;;;;;;243.90;162.95;;;;;;;;;;4290321;33;20033;-94
2021/07/21 06:27:21;;;;;;;247.45;162.27;;;;;;;;;;4281294;33;20069;-95
2021/07/21 06:29:51;;;;;;;247.48;160.00;;;;;;;;;;4301247;33;20088;-96
2021/07/21 06:32:30;;;;;;;191.82;130.45;;;;;;;;;;4284272;33;20076;-95
2021/07/21 06:35:00;;;;;;;195.20;130.50;;;;;;;;;;4276661;33;20064;-95
2021/07/21 06:37:29;;;;;;;188.30;129.80;;;;;;;;;;4280148;33;20128;-96
2021/07/21 06:40:01;;;;;;;191.93;132.87;;;;;;;;;;4287766;33;20061;-94
2021/07/21 06:42:30;;;;;;;199.27;137.40;;;;;;;;;;4276360;33;20427;-96
2021/07/21 06:45:05;;;;;;;205.82;138.70;;;;;;;;;;4274779;33;20068;-96
2021/07/21 06:47:41;;;;;;;225.57;150.65;;;;;;;;;;4290508;33;20037;-95
2021/07/21 06:50:23;;;;;;;218.37;152.02;;;;;;;;;;4276129;33;20045;-95
2021/07/21 06:52:56;;;;;;;225.93;152.10;;;;;;;;;;4283917;33;20061;-96
2021/07/21 06:55:33;;;;;;;220.40;148.68;;;;;;;;;;4274330;33;20057;-95
2021/07/21 06:58:03;;;;;;;222.50;153.57;;;;;;;;;;4275774;33;20032;-96
2021/07/21 07:00:45;;;;;;;205.48;139.45;;;;;;;;;;4279072;33;20480;-96
2021/07/21 07:03:59;;;;;;;238.98;158.63;;;;;;;;;;4280560;33;20057;-95
2021/07/21 10:41:28;;;;;;;20.92;7.62;;;;;;;;;;4278999;33;20099;-83
2021/07/21 10:43:58;;;;;;;13.43;6.65;;;;;;;;;;4288105;33;20111;-84
2021/07/21 10:46:34;;;;;;;17.20;6.68;;;;;;;;;;4294219;33;20130;-83
2021/07/21 10:49:22;;;;;;;17.92;6.72;;;;;;;;;;4291004;33;20658;-84
2021/07/21 10:52:40;;;;;;;11.88;6.15;;;;;;;;;;4293956;33;20882;-83
2021/07/21 10:55:24;;;;;;;14.95;5.90;;;;;;;;;;4249626;33;20113;-83
2021/07/21 11:00:55;;;;;;;16.27;6.72;;;;;;;;;;4292440;33;20048;-84
2021/07/21 11:03:25;;;;;;;12.98;6.53;;;;;;;;;;4292309;33;20362;-83
2021/07/21 11:06:02;;;;;;;14.35;6.80;;;;;;;;;;4292631;33;20117;-83
2021/07/21 11:08:31;;;;;;;10.35;5.62;;;;;;;;;;4293398;33;20037;-83
2021/07/21 11:11:10;;;;;;;23.48;7.28;;;;;;;;;;4294534;33;20171;-83
2021/07/21 11:13:40;;;;;;;12.82;6.20;;;;;;;;;;4292422;33;20084;-84
2021/07/21 11:16:28;;;;;;;13.38;6.25;;;;;;;;;;4290394;33;20076;-83
2021/07/21 11:18:57;;;;;;;11.70;5.62;;;;;;;;;;4288628;33;20124;-83
2021/07/21 11:21:25;;;;;;;13.18;6.53;;;;;;;;;;4295983;33;20063;-83
2021/07/21 11:23:54;;;;;;;11.75;5.85;;;;;;;;;;4291986;33;20508;-83
2021/07/21 11:26:33;;;;;;;10.73;4.65;;;;;;;;;;4295092;33;20107;-83
2021/07/21 11:29:20;;;;;;;9.10;4.97;;;;;;;;;;4293613;33;20454;-84
2021/07/21 11:31:49;;;;;;;17.75;6.62;;;;;;;;;;4293462;33;20126;-84
2021/07/21 11:34:28;;;;;;;12.85;5.68;;;;;;;;;;4292604;33;20128;-83
2021/07/21 11:37:03;;;;;;;56.70;8.68;;;;;;;;;;4294503;33;20080;-83
2021/07/21 11:39:56;;;;;;;13.02;5.82;;;;;;;;;;4287460;33;20083;-83
2021/07/21 11:42:40;;;;;;;16.42;5.90;;;;;;;;;;4293530;33;20060;-84
2021/07/21 11:45:15;;;;;;;11.65;5.60;;;;;;;;;;4295649;33;20838;-83
2021/07/21 11:47:48;;;;;;;17.48;6.07;;;;;;;;;;4289027;33;20079;-84
2021/07/21 11:50:30;;;;;;;16.50;7.00;;;;;;;;;;4294409;33;20776;-83
2021/07/21 11:53:00;;;;;;;14.77;6.25;;;;;;;;;;4294071;33;20116;-82
2021/07/21 11:55:30;;;;;;;13.00;6.00;;;;;;;;;;4295790;33;20523;-82
2021/07/21 11:58:09;;;;;;;10.43;4.62;;;;;;;;;;4298657;33;20088;-83
2021/07/21 12:00:37;;;;;;;13.15;5.82;;;;;;;;;;4291525;33;20111;-83
2021/07/21 12:03:06;;;;;;;10.18;5.18;;;;;;;;;;4284789;33;20083;-85
2021/07/21 12:05:35;;;;;;;12.95;5.62;;;;;;;;;;4280507;33;20109;-84
2021/07/21 12:08:23;;;;;;;13.50;6.07;;;;;;;;;;4289841;33;20176;-83
2021/07/21 12:10:51;;;;;;;18.02;6.10;;;;;;;;;;4270178;33;20196;-85
2021/07/21 12:13:23;;;;;;;13.07;4.95;;;;;;;;;;4288143;33;20056;-87
2021/07/21 12:16:02;;;;;;;19.80;5.85;;;;;;;;;;4289619;33;20495;-84
2021/07/21 12:18:30;;;;;;;24.02;6.35;;;;;;;;;;4289691;33;20120;-85
2021/07/21 12:21:05;;;;;;;10.93;5.90;;;;;;;;;;4291521;33;20216;-84
2021/07/21 12:23:34;;;;;;;10.43;5.10;;;;;;;;;;4291213;33;20053;-85
2021/07/21 12:26:07;;;;;;;10.95;5.82;;;;;;;;;;4297008;33;20071;-84
2021/07/21 12:28:35;;;;;;;12.45;5.75;;;;;;;;;;4292126;33;20491;-83
2021/07/21 12:31:04;;;;;;;9.98;5.25;;;;;;;;;;4286794;33;20100;-85
2021/07/21 12:33:33;;;;;;;12.55;5.90;;;;;;;;;;4286381;33;20108;-84
2021/07/21 12:36:05;;;;;;;15.77;6.00;;;;;;;;;;4276709;33;20399;-84
2021/07/21 12:38:38;;;;;;;12.25;5.68;;;;;;;;;;4292936;33;20376;-84
2021/07/21 12:41:08;;;;;;;11.15;5.25;;;;;;;;;;4289854;33;20114;-84
2021/07/21 12:43:37;;;;;;;19.02;6.60;;;;;;;;;;4269530;33;20514;-85
2021/07/21 12:46:17;;;;;;;12.52;5.30;;;;;;;;;;4290364;33;20053;-84
2021/07/21 12:48:47;;;;;;;9.02;4.87;;;;;;;;;;4287969;33;20180;-84
2021/07/21 12:51:15;;;;;;;15.65;6.00;;;;;;;;;;4292093;33;20112;-84
2021/07/21 12:53:45;;;;;;;11.50;5.15;;;;;;;;;;4288360;33;20069;-85
2021/07/21 12:56:14;;;;;;;18.80;5.95;;;;;;;;;;4291535;33;20815;-85
2021/07/21 12:58:43;;;;;;;13.48;5.35;;;;;;;;;;4289962;33;20049;-84
2021/07/21 13:01:11;;;;;;;13.23;6.07;;;;;;;;;;4287504;33;20534;-84
2021/07/21 13:03:47;;;;;;;11.52;4.47;;;;;;;;;;4288849;33;20048;-84
2021/07/21 13:06:23;;;;;;;16.05;5.95;;;;;;;;;;4289994;33;20387;-84
2021/07/21 13:08:52;;;;;;;12.00;5.82;;;;;;;;;;4287625;33;20065;-84
2021/07/21 13:11:21;;;;;;;17.25;6.43;;;;;;;;;;4287921;33;20041;-84
2021/07/21 13:13:55;;;;;;;16.35;6.70;;;;;;;;;;4288101;33;20096;-85
2021/07/21 13:16:29;;;;;;;51.30;8.13;;;;;;;;;;4275461;33;20498;-84
2021/07/21 13:19:02;;;;;;;11.03;4.90;;;;;;;;;;4289056;33;20079;-85
2021/07/21 13:21:39;;;;;;;10.57;5.07;;;;;;;;;;4288591;33;20083;-84
2021/07/21 13:24:08;;;;;;;12.23;4.93;;;;;;;;;;4270726;33;20463;-85
2021/07/21 13:26:37;;;;;;;11.00;4.82;;;;;;;;;;4288169;33;20124;-84
2021/07/21 13:29:13;;;;;;;12.05;5.35;;;;;;;;;;4290404;33;20092;-85
2021/07/21 13:31:46;;;;;;;12.75;6.25;;;;;;;;;;4283002;33;20069;-85
2021/07/21 13:34:18;;;;;;;16.50;6.60;;;;;;;;;;4290285;33;20053;-85
2021/07/21 13:36:48;;;;;;;14.25;7.12;;;;;;;;;;4288180;33;20437;-84
2021/07/21 13:39:17;;;;;;;12.57;6.07;;;;;;;;;;4274550;33;20179;-84
2021/07/21 13:41:59;;;;;;;11.45;6.80;;;;;;;;;;4290649;33;20134;-84
2021/07/21 13:44:32;;;;;;;14.77;6.40;;;;;;;;;;4290172;33;20108;-85
2021/07/21 13:47:05;;;;;;;19.37;7.18;;;;;;;;;;4287606;33;20050;-85
2021/07/21 13:49:38;;;;;;;12.50;6.25;;;;;;;;;;4266695;33;20161;-84
2021/07/21 13:52:09;;;;;;;12.25;6.50;;;;;;;;;;4281743;33;20056;-84
2021/07/21 13:54:47;;;;;;;15.18;6.50;;;;;;;;;;4279250;33;20085;-84
2021/07/21 13:57:17;;;;;;;11.95;6.03;;;;;;;;;;4281792;33;20102;-84
2021/07/21 13:59:50;;;;;;;18.55;6.03;;;;;;;;;;4280671;33;20045;-84
2021/07/21 14:02:22;;;;;;;14.30;5.80;;;;;;;;;;4282020;33;20106;-84
2021/07/21 14:04:51;;;;;;;11.40;5.87;;;;;;;;;;4280270;33;20107;-84
2021/07/21 14:07:20;;;;;;;9.13;4.50;;;;;;;;;;4282339;33;20822;-84
2021/07/21 14:09:49;;;;;;;11.02;5.90;;;;;;;;;;4282603;33;20048;-84
2021/07/21 14:12:18;;;;;;;14.98;5.28;;;;;;;;;;4272321;33;20112;-83
2021/07/21 14:14:46;;;;;;;13.98;6.18;;;;;;;;;;4284539;33;20042;-83
2021/07/21 14:17:15;;;;;;;13.07;5.90;;;;;;;;;;4290997;33;20037;-83
2021/07/21 14:19:46;;;;;;;27.45;7.35;;;;;;;;;;4284289;33;20045;-84
2021/07/21 14:22:15;;;;;;;12.75;5.80;;;;;;;;;;4285688;33;20045;-83
2021/07/21 14:24:45;;;;;;;14.60;5.82;;;;;;;;;;4284679;33;20078;-84
2021/07/21 14:27:13;;;;;;;12.82;5.87;;;;;;;;;;4289219;33;20073;-84
2021/07/21 14:29:57;;;;;;;12.73;5.87;;;;;;;;;;4272370;33;20076;-84
2021/07/21 14:32:26;;;;;;;49.63;8.45;;;;;;;;;;4287928;33;20075;-84
2021/07/21 14:34:55;;;;;;;12.52;4.97;;;;;;;;;;4288759;33;20161;-83
2021/07/21 14:37:23;;;;;;;11.40;5.22;;;;;;;;;;4289669;33;20408;-85
2021/07/21 14:39:52;;;;;;;14.18;5.68;;;;;;;;;;4287651;33;20088;-83
2021/07/21 14:42:20;;;;;;;10.57;4.82;;;;;;;;;;4291092;33;20061;-84
2021/07/21 14:44:50;;;;;;;12.05;5.57;;;;;;;;;;4291697;33;20088;-83
2021/07/21 14:47:23;;;;;;;14.10;4.55;;;;;;;;;;4290161;33;20071;-84
2021/07/21 14:49:52;;;;;;;14.32;4.97;;;;;;;;;;4274501;33;20037;-85
2021/07/21 14:52:21;;;;;;;11.80;5.22;;;;;;;;;;4286770;33;20087;-82
2021/07/21 14:54:50;;;;;;;26.75;7.03;;;;;;;;;;4293529;33;20049;-84
2021/07/21 14:57:19;;;;;;;10.50;5.28;;;;;;;;;;4289418;33;20096;-84
2021/07/21 14:59:48;;;;;;;55.75;8.18;;;;;;;;;;4292651;33;20088;-84
2021/07/21 15:02:16;;;;;;;13.77;5.15;;;;;;;;;;4290678;33;20065;-83
2021/07/21 15:04:45;;;;;;;16.23;5.62;;;;;;;;;;4291126;33;20061;-84
2021/07/21 15:07:14;;;;;;;12.30;5.40;;;;;;;;;;4291391;33;20091;-84
2021/07/21 15:09:49;;;;;;;11.77;5.50;;;;;;;;;;4292361;33;20168;-84
2021/07/21 15:12:18;;;;;;;12.85;5.62;;;;;;;;;;4288622;33;20132;-83
2021/07/21 15:14:46;;;;;;;12.23;4.78;;;;;;;;;;4291781;33;20121;-84
2021/07/21 15:17:15;;;;;;;12.98;4.55;;;;;;;;;;4287294;33;20068;-83
2021/07/21 15:19:44;;;;;;;11.80;4.18;;;;;;;;;;4291663;33;20083;-84
2021/07/21 15:22:13;;;;;;;13.13;5.00;;;;;;;;;;4291030;33;20167;-84
2021/07/21 15:24:41;;;;;;;11.00;4.72;;;;;;;;;;4282641;33;20097;-83
2021/07/21 15:27:15;;;;;;;8.85;3.95;;;;;;;;;;4275123;33;20124;-83
2021/07/21 15:29:43;;;;;;;13.30;5.25;;;;;;;;;;4290015;33;20132;-84
2021/07/21 15:32:13;;;;;;;12.73;5.28;;;;;;;;;;4276635;33;20111;-83
2021/07/21 15:34:42;;;;;;;12.15;4.75;;;;;;;;;;4292415;33;20053;-84
2021/07/21 15:37:11;;;;;;;14.63;5.90;;;;;;;;;;4286570;33;20195;-84
2021/07/21 15:39:39;;;;;;;15.70;5.37;;;;;;;;;;4290350;33;20155;-84
2021/07/21 15:42:09;;;;;;;10.43;4.85;;;;;;;;;;4289771;33;20115;-85
2021/07/21 15:44:38;;;;;;;11.50;4.68;;;;;;;;;;4286231;33;20449;-84
2021/07/21 15:47:06;;;;;;;11.30;4.60;;;;;;;;;;4290698;33;20036;-84
2021/07/21 15:49:35;;;;;;;11.43;4.57;;;;;;;;;;4290809;33;20116;-83
2021/07/21 15:52:06;;;;;;;10.00;4.78;;;;;;;;;;4273881;33;20913;-85
2021/07/21 15:54:36;;;;;;;10.80;4.90;;;;;;;;;;4276748;33;20064;-84
2021/07/21 15:57:05;;;;;;;9.15;4.40;;;;;;;;;;4290988;33;20339;-84
2021/07/21 15:59:34;;;;;;;7.50;3.35;;;;;;;;;;4285106;33;20049;-84
2021/07/21 16:02:03;;;;;;;15.60;4.90;;;;;;;;;;4289461;33;20218;-84
2021/07/21 16:04:32;;;;;;;9.20;4.07;;;;;;;;;;4289917;33;20708;-84
2021/07/21 16:07:02;;;;;;;11.27;4.40;;;;;;;;;;4289194;33;20819;-84
2021/07/21 16:09:31;;;;;;;15.18;4.90;;;;;;;;;;4290424;33;20455;-84
2021/07/21 16:12:00;;;;;;;14.87;5.50;;;;;;;;;;4263183;33;20105;-83
2021/07/21 16:14:29;;;;;;;13.27;5.18;;;;;;;;;;4289903;33;20111;-85
2021/07/21 16:16:57;;;;;;;14.23;4.85;;;;;;;;;;4289387;33;20191;-84
2021/07/21 16:19:26;;;;;;;10.05;4.18;;;;;;;;;;4293272;33;20091;-84
2021/07/21 16:21:55;;;;;;;18.92;5.00;;;;;;;;;;4291116;33;20074;-84
2021/07/21 16:24:25;;;;;;;13.50;4.70;;;;;;;;;;4287950;33;20084;-83
2021/07/21 16:26:55;;;;;;;13.65;4.87;;;;;;;;;;4287541;33;20044;-84
2021/07/21 16:29:23;;;;;;;16.37;5.32;;;;;;;;;;4272029;33;20120;-84
2021/07/21 16:31:53;;;;;;;15.60;5.55;;;;;;;;;;4287342;33;20116;-83
2021/07/21 16:34:23;;;;;;;13.05;5.47;;;;;;;;;;4273983;33;20100;-84
2021/07/21 16:36:52;;;;;;;14.10;4.62;;;;;;;;;;4288241;33;20117;-83
2021/07/21 16:39:20;;;;;;;16.98;5.55;;;;;;;;;;4288393;33;20147;-83
2021/07/21 16:41:49;;;;;;;13.32;4.93;;;;;;;;;;4287841;33;20731;-83
2021/07/21 16:44:17;;;;;;;18.05;5.45;;;;;;;;;;4286140;33;20519;-85
2021/07/21 16:46:46;;;;;;;9.90;4.22;;;;;;;;;;4286928;33;20087;-84
2021/07/21 16:49:15;;;;;;;14.65;4.05;;;;;;;;;;4277079;33;20128;-84
2021/07/21 16:51:43;;;;;;;13.10;5.00;;;;;;;;;;4272655;33;22078;-84
2021/07/21 16:54:12;;;;;;;12.60;4.75;;;;;;;;;;4283334;33;20518;-83
2021/07/21 16:56:40;;;;;;;11.52;4.50;;;;;;;;;;4283329;33;20116;-84
2021/07/21 16:59:09;;;;;;;10.55;4.70;;;;;;;;;;4289934;33;20053;-84
2021/07/21 17:01:38;;;;;;;12.23;4.37;;;;;;;;;;4277754;33;20597;-83
2021/07/21 17:04:07;;;;;;;11.23;4.03;;;;;;;;;;4289461;33;20095;-83
2021/07/21 17:06:36;;;;;;;11.90;4.62;;;;;;;;;;4291177;33;20107;-84
2021/07/21 17:09:04;;;;;;;12.02;4.78;;;;;;;;;;4284300;33;20096;-84
2021/07/21 17:11:33;;;;;;;13.13;4.68;;;;;;;;;;4288709;33;20167;-84
2021/07/21 17:14:01;;;;;;;9.35;3.47;;;;;;;;;;4284974;33;20065;-84
2021/07/21 17:16:30;;;;;;;11.70;3.62;;;;;;;;;;4287016;33;20111;-84
2021/07/21 17:19:00;;;;;;;11.30;4.55;;;;;;;;;;4292887;33;20108;-83
2021/07/21 17:21:28;;;;;;;15.35;6.70;;;;;;;;;;4288157;33;20113;-84
2021/07/21 17:23:58;;;;;;;27.17;22.42;;;;;;;;;;4293034;33;20056;-84
2021/07/21 17:26:27;;;;;;;22.92;20.52;;;;;;;;;;4292954;33;20049;-83
2021/07/21 17:28:55;;;;;;;48.25;44.72;;;;;;;;;;4285034;33;20657;-83
2021/07/21 17:31:24;;;;;;;15.63;14.02;;;;;;;;;;4285277;33;20468;-83
2021/07/21 17:33:53;;;;;;;72.90;68.25;;;;;;;;;;4272720;33;20061;-83
2021/07/21 17:36:21;;;;;;;97.65;91.53;;;;;;;;;;4288468;33;20159;-83
2021/07/21 17:38:50;;;;;;;84.32;79.28;;;;;;;;;;4288258;33;20692;-83
2021/07/21 17:41:19;;;;;;;50.75;47.22;;;;;;;;;;4288208;33;20033;-83
2021/07/21 17:43:47;;;;;;;70.55;64.90;;;;;;;;;;4288257;33;20845;-83
2021/07/21 17:46:16;;;;;;;40.15;36.17;;;;;;;;;;4288514;33;20041;-85
2021/07/21 17:48:45;;;;;;;30.80;28.48;;;;;;;;;;4290424;33;20077;-84
2021/07/21 17:51:13;;;;;;;91.28;85.68;;;;;;;;;;4294467;33;20053;-85
2021/07/21 17:53:42;;;;;;;201.18;190.75;;;;;;;;;;4287580;33;20115;-83
2021/07/21 17:56:11;;;;;;;175.82;166.32;;;;;;;;;;4288847;33;20531;-84
2021/07/21 17:58:39;;;;;;;289.27;272.05;;;;;;;;;;4286429;33;20053;-84
2021/07/21 18:01:07;;;;;;;91.32;86.37;;;;;;;;;;4294849;33;20458;-83
2021/07/21 18:03:37;;;;;;;161.93;152.20;;;;;;;;;;4288414;33;20053;-83
2021/07/21 18:06:06;;;;;;;188.82;177.43;;;;;;;;;;4289558;33;20049;-84
2021/07/21 18:08:34;;;;;;;180.73;170.65;;;;;;;;;;4269100;33;20157;-83
2021/07/21 18:11:04;;;;;;;150.43;141.82;;;;;;;;;;4287217;33;20167;-84
2021/07/21 18:13:32;;;;;;;161.75;152.10;;;;;;;;;;4290235;33;20097;-83
2021/07/21 18:16:00;;;;;;;178.75;168.68;;;;;;;;;;4293053;33;20193;-84
2021/07/21 18:18:29;;;;;;;138.73;130.43;;;;;;;;;;4293514;33;20790;-84
2021/07/21 18:21:12;;;;;;;217.35;201.75;;;;;;;;;;4290774;33;20646;-82
2021/07/21 18:23:43;;;;;;;145.12;135.43;;;;;;;;;;4294011;33;20037;-84